KPMU/PMU METAR and TAF weather

Enter ICAO airport designator
Station Type Date Time Source
KPMU METAR 2019/10/15 20:55 UTC NOAA

KPMU 152055Z AUTO 16006KT OVC011 21/20 A2988 RMK AO2


Station Type Date Time Source
KPMU Decoded METAR 2019/10/15 20:55 UTC NOAA

Station name not available
Oct 15, 2019 - 04:55 PM EDT / 2019.10.15 2055 UTC
Wind: from the SSE (160 degrees) at 7 MPH (6 KT):0
Sky conditions: overcast
Temperature: 69 F (21 C)
Dew Point: 68 F (20 C)
Relative Humidity: 94%
Pressure (altimeter): 29.88 in. Hg (1011 hPa)
ob: KPMU 152055Z AUTO 16006KT OVC011 21/20 A2988 RMK AO2
cycle: 21

Station Type Date Time Source
KPMU TAF UTC NOAA

Error!

Example: see airport list